Time;durP1;ratioP1;P1;durP2;ratioP2;P2;SDS_P1;SDS_P2;PMS_P1;PMS_P2;Temp;Humidity;BMP_temperature;BMP_pressure;BME280_temperature;BME280_humidity;BME280_pressure;Samples;Min_cycle;Max_cycle;Signal;HPM_P1;HPM_P2
2023/12/27 00:01:38;;;;;;;11.67;4.30;;;8.60;99.90;;;;;;5140678;27;20946;-65
2023/12/27 00:04:05;;;;;;;10.50;4.60;;;8.60;99.90;;;;;;5141396;27;20868;-65
2023/12/27 00:06:31;;;;;;;10.50;4.83;;;8.50;99.90;;;;;;5141700;27;20444;-65
2023/12/27 00:08:58;;;;;;;10.10;4.70;;;8.50;99.90;;;;;;5141360;27;20444;-65
2023/12/27 00:11:26;;;;;;;15.47;4.47;;;8.40;99.90;;;;;;5141091;27;20477;-64
2023/12/27 00:13:53;;;;;;;8.37;4.67;;;8.40;99.90;;;;;;5141179;27;20461;-65
2023/12/27 00:16:22;;;;;;;10.33;4.60;;;8.50;99.90;;;;;;5122784;27;20480;-65
2023/12/27 00:18:49;;;;;;;16.47;5.77;;;8.50;99.90;;;;;;5140233;27;20517;-65
2023/12/27 00:21:15;;;;;;;15.50;4.57;;;8.50;99.90;;;;;;5141056;27;20828;-64
2023/12/27 00:23:42;;;;;;;12.10;6.03;;;8.40;99.90;;;;;;5142210;27;20463;-65
2023/12/27 00:26:09;;;;;;;10.60;4.47;;;8.40;99.90;;;;;;5141479;27;20858;-65
2023/12/27 00:28:37;;;;;;;12.80;3.60;;;8.40;99.90;;;;;;5141120;27;20442;-65
2023/12/27 00:31:04;;;;;;;17.00;4.90;;;8.30;99.90;;;;;;5140842;27;20481;-65
2023/12/27 00:33:31;;;;;;;8.83;4.43;;;8.30;99.90;;;;;;5139972;27;20446;-64
2023/12/27 00:35:58;;;;;;;12.93;3.93;;;8.20;99.90;;;;;;5122305;27;20487;-65
2023/12/27 00:38:25;;;;;;;9.10;3.90;;;8.10;99.90;;;;;;5122235;27;20473;-65
2023/12/27 00:40:52;;;;;;;11.10;4.63;;;8.10;99.90;;;;;;5141427;27;20473;-65
2023/12/27 00:43:19;;;;;;;8.87;4.40;;;8.00;99.90;;;;;;5140045;27;20438;-65
2023/12/27 00:45:47;;;;;;;16.20;4.90;;;8.10;99.90;;;;;;5120397;27;20442;-65
2023/12/27 00:48:14;;;;;;;8.63;4.13;;;8.10;99.90;;;;;;5137510;27;20831;-65
2023/12/27 00:50:41;;;;;;;9.30;3.67;;;8.10;99.90;;;;;;5139024;27;20488;-65
2023/12/27 00:53:07;;;;;;;10.23;4.20;;;8.10;99.90;;;;;;5121853;27;20446;-65
2023/12/27 00:55:34;;;;;;;12.00;4.73;;;8.10;99.90;;;;;;5146149;27;20457;-64
2023/12/27 00:58:01;;;;;;;6.37;3.60;;;8.10;99.90;;;;;;5142002;27;20898;-65
2023/12/27 01:00:27;;;;;;;11.53;4.60;;;8.00;99.90;;;;;;5139281;27;20453;-65
2023/12/27 01:02:56;;;;;;;15.23;5.00;;;8.00;99.90;;;;;;5139432;27;20815;-64
2023/12/27 01:05:22;;;;;;;13.03;4.43;;;8.00;99.90;;;;;;5139674;27;20442;-65
2023/12/27 01:07:49;;;;;;;11.77;4.90;;;7.90;99.90;;;;;;5139662;27;20533;-65
2023/12/27 01:10:16;;;;;;;15.70;4.40;;;7.80;99.90;;;;;;5138775;27;21002;-65
2023/12/27 01:12:43;;;;;;;8.87;3.73;;;7.80;99.90;;;;;;5139949;27;20935;-65
2023/12/27 01:15:10;;;;;;;9.30;3.93;;;7.80;99.90;;;;;;5139831;27;20443;-65
2023/12/27 01:17:37;;;;;;;11.10;3.40;;;7.80;99.90;;;;;;5140039;27;20441;-65
2023/12/27 01:20:06;;;;;;;9.60;3.83;;;7.80;99.90;;;;;;5140495;27;20466;-65
2023/12/27 01:22:33;;;;;;;8.30;4.00;;;7.70;99.90;;;;;;5139848;27;20442;-64
2023/12/27 01:25:00;;;;;;;12.63;3.60;;;7.70;99.90;;;;;;5140404;27;20452;-65
2023/12/27 01:27:27;;;;;;;11.40;3.97;;;7.70;99.90;;;;;;5140933;27;20442;-65
2023/12/27 01:29:54;;;;;;;10.93;4.13;;;7.80;99.90;;;;;;5142768;27;20457;-65
2023/12/27 01:32:20;;;;;;;9.80;3.43;;;7.80;99.90;;;;;;5124355;27;20489;-65
2023/12/27 01:34:47;;;;;;;9.63;3.60;;;7.90;99.90;;;;;;5141970;27;20437;-65
2023/12/27 01:37:16;;;;;;;12.40;3.00;;;7.90;99.90;;;;;;5141163;27;20445;-65
2023/12/27 01:39:42;;;;;;;8.00;3.07;;;7.90;99.90;;;;;;5140755;27;20462;-65
2023/12/27 01:42:09;;;;;;;11.27;3.60;;;7.90;99.90;;;;;;5140841;27;20962;-65
2023/12/27 01:44:36;;;;;;;8.20;3.43;;;7.90;99.90;;;;;;5140681;27;20445;-65
2023/12/27 01:47:03;;;;;;;9.20;3.30;;;8.00;99.90;;;;;;5139620;27;20525;-65
2023/12/27 01:49:30;;;;;;;7.13;3.47;;;8.00;99.90;;;;;;5140131;27;20458;-65
2023/12/27 01:51:57;;;;;;;7.50;2.93;;;8.00;99.90;;;;;;5140392;27;20486;-65
2023/12/27 01:54:25;;;;;;;4.30;2.63;;;7.90;99.90;;;;;;5140469;27;20442;-66
2023/12/27 01:56:51;;;;;;;8.13;3.37;;;7.90;99.90;;;;;;5140038;27;20427;-65
2023/12/27 01:59:19;;;;;;;10.20;3.63;;;7.90;99.90;;;;;;5140394;27;20874;-65
2023/12/27 02:01:46;;;;;;;5.73;2.53;;;7.90;99.90;;;;;;5139023;27;20442;-65
2023/12/27 02:04:13;;;;;;;9.83;3.63;;;7.90;99.90;;;;;;5139704;27;20438;-64
2023/12/27 02:06:40;;;;;;;10.63;3.33;;;7.90;99.90;;;;;;5140057;27;20938;-65
2023/12/27 02:09:07;;;;;;;9.30;3.60;;;7.90;99.90;;;;;;5139638;27;20473;-65
2023/12/27 02:11:35;;;;;;;21.57;4.57;;;7.90;99.90;;;;;;5138709;27;20470;-65
2023/12/27 02:14:02;;;;;;;5.23;3.23;;;7.80;99.90;;;;;;5139820;27;20441;-65
2023/12/27 02:16:29;;;;;;;10.00;3.10;;;7.80;99.90;;;;;;5139347;27;20445;-65
2023/12/27 02:18:57;;;;;;;6.87;3.27;;;7.80;99.90;;;;;;5139151;27;20438;-65
2023/12/27 02:21:26;;;;;;;8.73;3.97;;;7.80;99.90;;;;;;5139168;27;20438;-65
2023/12/27 02:23:55;;;;;;;7.07;2.67;;;7.80;99.90;;;;;;5139458;27;20446;-65
2023/12/27 02:26:23;;;;;;;10.97;4.00;;;7.80;99.90;;;;;;5139453;27;20445;-64
2023/12/27 02:28:50;;;;;;;13.17;4.10;;;7.80;99.90;;;;;;5138551;27;20992;-64
2023/12/27 02:31:17;;;;;;;10.50;3.30;;;7.80;99.90;;;;;;5138752;27;21021;-65
2023/12/27 02:33:45;;;;;;;9.67;3.23;;;7.80;99.90;;;;;;5139282;27;20438;-65
2023/12/27 02:36:12;;;;;;;12.67;3.27;;;7.80;99.90;;;;;;5138402;27;20438;-65
2023/12/27 02:38:39;;;;;;;8.50;3.47;;;7.70;99.90;;;;;;5138926;27;20507;-65
2023/12/27 02:41:06;;;;;;;12.07;4.40;;;7.80;99.90;;;;;;5139510;27;20458;-65
2023/12/27 02:43:34;;;;;;;7.53;3.40;;;7.70;99.90;;;;;;5139487;28;20438;-65
2023/12/27 02:46:02;;;;;;;12.03;3.90;;;7.70;99.90;;;;;;5140132;28;20438;-65
2023/12/27 02:48:29;;;;;;;9.23;4.27;;;7.70;99.90;;;;;;5140187;28;20449;-64
2023/12/27 02:50:57;;;;;;;10.20;4.60;;;7.70;99.90;;;;;;5139158;28;20534;-65
2023/12/27 02:53:24;;;;;;;13.03;4.53;;;7.70;99.90;;;;;;5121294;28;20440;-65
2023/12/27 02:55:50;;;;;;;12.17;4.60;;;7.70;99.90;;;;;;5138330;28;20454;-65
2023/12/27 02:58:17;;;;;;;7.00;3.73;;;7.70;99.90;;;;;;5139286;27;20774;-65
2023/12/27 03:00:46;;;;;;;12.77;4.87;;;7.70;99.90;;;;;;5142488;27;20457;-65
2023/12/27 03:03:12;;;;;;;9.03;5.10;;;7.70;99.90;;;;;;5141686;27;20441;-65
2023/12/27 03:05:40;;;;;;;12.43;4.87;;;7.70;99.90;;;;;;5143967;27;20441;-65
2023/12/27 03:08:07;;;;;;;9.10;4.47;;;7.70;99.90;;;;;;5145987;27;20442;-65
2023/12/27 03:10:33;;;;;;;17.37;4.20;;;7.70;99.90;;;;;;5144924;27;20549;-65
2023/12/27 03:13:01;;;;;;;5.70;3.50;;;7.60;99.90;;;;;;5145469;27;20442;-65
2023/12/27 03:15:28;;;;;;;8.97;4.20;;;7.60;99.90;;;;;;5148603;27;20446;-64
2023/12/27 03:17:56;;;;;;;12.10;4.70;;;7.60;99.90;;;;;;5148801;27;20548;-64
2023/12/27 03:20:23;;;;;;;12.37;4.63;;;7.60;99.90;;;;;;5146795;27;20569;-65
2023/12/27 03:22:50;;;;;;;7.93;4.57;;;7.60;99.90;;;;;;5145379;27;20445;-64
2023/12/27 03:25:16;;;;;;;12.80;5.23;;;7.60;99.90;;;;;;5143863;27;20454;-65
2023/12/27 03:27:43;;;;;;;6.53;4.10;;;7.50;99.90;;;;;;5144049;27;20438;-65
2023/12/27 03:30:11;;;;;;;11.60;4.47;;;7.50;99.90;;;;;;5144761;27;20462;-65
2023/12/27 03:32:38;;;;;;;11.07;4.57;;;7.50;99.90;;;;;;5144091;27;20530;-64
2023/12/27 03:35:07;;;;;;;8.37;3.93;;;7.50;99.90;;;;;;5142579;27;20453;-65
2023/12/27 03:37:33;;;;;;;15.60;4.13;;;7.50;99.90;;;;;;5143154;27;20452;-65
2023/12/27 03:40:00;;;;;;;10.70;4.47;;;7.50;99.90;;;;;;5143385;27;20457;-64
2023/12/27 03:42:27;;;;;;;11.90;4.20;;;7.50;99.90;;;;;;5142191;27;20430;-65
2023/12/27 03:44:53;;;;;;;9.93;4.37;;;7.50;99.90;;;;;;5141643;27;20453;-65
2023/12/27 03:47:20;;;;;;;12.17;3.80;;;7.60;99.90;;;;;;5142128;27;20442;-65
2023/12/27 03:49:47;;;;;;;7.03;3.60;;;7.50;99.90;;;;;;5141634;27;20837;-65
2023/12/27 03:52:15;;;;;;;10.20;4.23;;;7.50;99.90;;;;;;5141762;27;20473;-64
2023/12/27 03:54:42;;;;;;;11.53;3.97;;;7.50;99.90;;;;;;5141603;27;20445;-65
2023/12/27 03:57:09;;;;;;;17.97;4.63;;;7.60;99.90;;;;;;5141493;28;20442;-65
2023/12/27 03:59:37;;;;;;;15.33;5.07;;;7.60;99.90;;;;;;5140591;28;20462;-64
2023/12/27 04:02:04;;;;;;;10.53;3.67;;;7.60;99.90;;;;;;5141728;28;20445;-64
2023/12/27 04:04:30;;;;;;;10.50;4.23;;;7.60;99.90;;;;;;5141335;28;20438;-65
2023/12/27 04:06:57;;;;;;;8.27;4.80;;;7.60;99.90;;;;;;5140672;28;20438;-65
2023/12/27 04:09:25;;;;;;;9.13;4.30;;;7.60;99.90;;;;;;5140608;27;20464;-65
2023/12/27 04:11:52;;;;;;;9.20;4.47;;;7.60;99.90;;;;;;5140643;28;20477;-65
2023/12/27 04:14:19;;;;;;;12.57;4.10;;;7.70;99.90;;;;;;5141067;28;20437;-65
2023/12/27 04:16:45;;;;;;;7.83;3.70;;;7.70;99.90;;;;;;5140737;28;20442;-65
2023/12/27 04:19:12;;;;;;;12.10;4.90;;;7.60;99.90;;;;;;5140928;28;20822;-65
2023/12/27 04:21:41;;;;;;;14.33;4.50;;;7.70;99.90;;;;;;5141272;28;20459;-65
2023/12/27 04:24:08;;;;;;;13.70;4.90;;;7.60;99.90;;;;;;5140955;28;20446;-65
2023/12/27 04:26:38;;;;;;;10.23;4.27;;;7.70;99.90;;;;;;5141206;28;20438;-65
2023/12/27 04:29:06;;;;;;;12.17;4.30;;;7.70;99.90;;;;;;5141382;28;20438;-65
2023/12/27 04:31:33;;;;;;;9.27;4.57;;;7.70;99.90;;;;;;5122396;28;20839;-64
2023/12/27 04:34:00;;;;;;;11.83;4.73;;;7.70;99.90;;;;;;5140473;28;20442;-65
2023/12/27 04:36:27;;;;;;;7.53;4.50;;;7.70;99.90;;;;;;5140618;28;20498;-65
2023/12/27 04:38:54;;;;;;;14.03;5.60;;;7.70;99.90;;;;;;5122288;28;20445;-65
2023/12/27 04:41:22;;;;;;;12.37;4.77;;;7.70;99.90;;;;;;5140623;28;20445;-64
2023/12/27 04:43:50;;;;;;;12.10;5.67;;;7.70;99.90;;;;;;5141740;28;20438;-64
2023/12/27 04:46:17;;;;;;;8.47;4.87;;;7.80;99.90;;;;;;5141262;28;20437;-65
2023/12/27 04:48:44;;;;;;;10.40;4.80;;;7.80;99.90;;;;;;5140674;28;20445;-65
2023/12/27 04:51:10;;;;;;;11.23;6.10;;;7.80;99.90;;;;;;5140906;28;20458;-65
2023/12/27 04:53:37;;;;;;;12.20;5.50;;;7.80;99.90;;;;;;5141039;28;20438;-65
2023/12/27 04:56:04;;;;;;;11.33;6.07;;;7.80;99.90;;;;;;5085325;27;1588212;-65
2023/12/27 04:58:35;;;;;;;11.93;4.90;;;7.80;99.90;;;;;;5142146;27;20204;-65
2023/12/27 05:01:04;;;;;;;9.27;5.37;;;7.80;99.90;;;;;;5141747;27;20469;-64
2023/12/27 05:03:31;;;;;;;6.63;5.13;;;7.90;99.90;;;;;;5142116;27;20430;-64
2023/12/27 05:05:57;;;;;;;8.43;5.17;;;7.80;99.90;;;;;;5142440;27;20527;-64
2023/12/27 05:08:24;;;;;;;11.43;5.20;;;7.90;99.90;;;;;;5142171;27;20438;-65
2023/12/27 05:10:51;;;;;;;8.30;5.20;;;7.90;99.90;;;;;;5123073;27;20971;-64
2023/12/27 05:13:18;;;;;;;13.17;6.40;;;7.90;99.90;;;;;;5141299;27;20481;-65
2023/12/27 05:15:46;;;;;;;12.37;5.03;;;8.00;99.90;;;;;;5141516;27;20445;-64
2023/12/27 05:18:14;;;;;;;12.33;6.23;;;8.00;99.90;;;;;;5140960;27;20442;-65
2023/12/27 05:20:43;;;;;;;12.33;5.50;;;8.00;99.90;;;;;;5122653;27;20470;-65
2023/12/27 05:23:10;;;;;;;12.00;6.53;;;8.00;99.90;;;;;;5140457;27;20461;-65
2023/12/27 05:25:36;;;;;;;9.47;6.30;;;8.00;99.90;;;;;;5140936;27;20453;-65
2023/12/27 05:28:03;;;;;;;12.07;6.37;;;8.00;99.90;;;;;;5141284;27;20446;-65
2023/12/27 05:30:31;;;;;;;13.93;6.07;;;8.10;99.90;;;;;;5142099;27;20458;-64
2023/12/27 05:32:58;;;;;;;21.57;7.40;;;8.10;99.90;;;;;;5142946;27;20478;-65
2023/12/27 05:35:26;;;;;;;16.93;6.50;;;8.10;99.90;;;;;;5143203;27;20441;-65
2023/12/27 05:37:52;;;;;;;11.50;6.70;;;8.10;99.90;;;;;;5143433;27;20454;-64
2023/12/27 05:40:19;;;;;;;10.40;6.23;;;8.10;99.90;;;;;;5122362;27;21059;-64
2023/12/27 05:42:46;;;;;;;7.43;5.20;;;8.10;99.90;;;;;;5139433;27;20461;-65
2023/12/27 05:45:13;;;;;;;10.60;5.50;;;8.20;99.90;;;;;;5139335;27;20946;-64
2023/12/27 05:47:40;;;;;;;9.33;4.87;;;8.10;99.90;;;;;;5121380;27;20467;-64
2023/12/27 05:50:09;;;;;;;9.53;4.57;;;8.20;99.90;;;;;;5141029;27;20457;-64
2023/12/27 05:52:37;;;;;;;12.13;4.50;;;8.20;99.90;;;;;;5140755;27;20480;-65
2023/12/27 05:55:05;;;;;;;8.77;4.77;;;8.20;99.90;;;;;;5139118;27;20637;-65
2023/12/27 05:57:32;;;;;;;10.20;4.83;;;8.20;99.90;;;;;;5139111;27;20470;-65
2023/12/27 05:59:59;;;;;;;9.77;4.53;;;8.20;99.90;;;;;;5138324;27;20466;-65
2023/12/27 06:02:26;;;;;;;7.83;4.40;;;8.20;99.90;;;;;;5120154;27;20439;-65
2023/12/27 06:04:52;;;;;;;7.33;4.60;;;8.20;99.90;;;;;;5137872;27;20449;-65
2023/12/27 06:07:19;;;;;;;14.03;4.27;;;8.20;99.90;;;;;;5136621;27;20491;-65
2023/12/27 06:09:47;;;;;;;10.07;4.77;;;8.20;99.90;;;;;;5118280;27;20465;-65
2023/12/27 06:12:14;;;;;;;13.20;4.83;;;8.30;99.90;;;;;;5137556;27;20482;-65
2023/12/27 06:14:41;;;;;;;9.60;4.90;;;8.30;99.90;;;;;;5119324;27;20499;-65
2023/12/27 06:17:08;;;;;;;10.00;4.30;;;8.40;99.90;;;;;;5138605;27;20442;-65
2023/12/27 06:19:36;;;;;;;12.03;5.40;;;8.40;99.90;;;;;;5138226;27;20465;-64
2023/12/27 06:22:03;;;;;;;9.10;5.47;;;8.30;99.90;;;;;;5137902;27;20954;-65
2023/12/27 06:24:29;;;;;;;9.77;5.27;;;8.40;99.90;;;;;;5120570;27;20449;-65
2023/12/27 06:26:57;;;;;;;7.73;3.90;;;8.40;99.90;;;;;;5121227;27;20757;-65
2023/12/27 06:29:24;;;;;;;7.93;4.57;;;8.40;99.90;;;;;;5138006;27;20465;-64
2023/12/27 06:31:51;;;;;;;13.37;5.33;;;8.40;99.90;;;;;;5138980;27;20434;-65
2023/12/27 06:34:18;;;;;;;9.93;4.90;;;8.40;99.90;;;;;;5139343;27;20445;-64
2023/12/27 06:36:45;;;;;;;10.80;5.23;;;8.40;99.90;;;;;;5138757;27;20484;-64
2023/12/27 06:39:13;;;;;;;8.43;4.90;;;8.50;99.90;;;;;;5120074;27;20997;-66
2023/12/27 06:41:40;;;;;;;8.40;5.27;;;8.40;99.90;;;;;;5138435;27;20438;-64
2023/12/27 06:44:08;;;;;;;12.13;5.93;;;8.40;99.90;;;;;;5138223;28;20442;-64
2023/12/27 06:46:35;;;;;;;9.40;5.80;;;8.40;99.90;;;;;;5138311;28;20453;-65
2023/12/27 06:49:01;;;;;;;12.13;6.13;;;8.50;99.90;;;;;;5119683;28;20438;-65
2023/12/27 06:51:28;;;;;;;14.83;6.10;;;8.50;99.90;;;;;;5137340;28;20446;-65
2023/12/27 06:53:55;;;;;;;14.63;5.30;;;8.40;99.90;;;;;;5137540;28;20486;-65
2023/12/27 06:56:22;;;;;;;12.13;5.67;;;8.40;99.90;;;;;;5138109;28;20446;-65
2023/12/27 06:58:49;;;;;;;9.63;4.67;;;8.50;99.90;;;;;;5138141;28;20884;-64
2023/12/27 07:01:17;;;;;;;15.30;5.73;;;8.40;99.90;;;;;;5137213;28;20454;-64
2023/12/27 07:03:44;;;;;;;8.17;5.33;;;8.40;99.90;;;;;;5137254;28;20832;-64
2023/12/27 07:06:11;;;;;;;16.60;5.40;;;8.40;99.90;;;;;;5119829;28;20438;-64
2023/12/27 07:08:38;;;;;;;7.30;5.43;;;8.40;99.90;;;;;;5137314;28;20962;-65
2023/12/27 07:11:05;;;;;;;11.60;6.07;;;8.40;99.90;;;;;;5137186;28;20469;-65
2023/12/27 07:13:32;;;;;;;11.67;5.53;;;8.40;99.90;;;;;;5137882;28;20481;-64
2023/12/27 07:15:59;;;;;;;11.40;5.87;;;8.40;99.90;;;;;;5138052;28;20442;-65
2023/12/27 07:18:27;;;;;;;14.27;7.53;;;8.40;99.90;;;;;;5137625;28;20440;-65
2023/12/27 07:20:54;;;;;;;7.80;5.17;;;8.40;99.90;;;;;;5136580;28;20497;-64
2023/12/27 07:23:20;;;;;;;10.73;5.40;;;8.40;99.90;;;;;;5134945;28;20429;-65
2023/12/27 07:25:48;;;;;;;9.40;5.90;;;8.50;99.90;;;;;;5134628;28;20449;-65
2023/12/27 07:28:15;;;;;;;8.70;6.47;;;8.50;99.90;;;;;;5134984;28;20446;-65
2023/12/27 07:30:42;;;;;;;6.83;5.00;;;8.50;99.90;;;;;;5134905;28;20491;-65
2023/12/27 07:33:09;;;;;;;11.20;6.87;;;8.50;99.90;;;;;;5135222;28;20997;-65
2023/12/27 07:35:37;;;;;;;9.70;5.63;;;8.50;99.90;;;;;;5135019;28;20434;-65
2023/12/27 07:38:04;;;;;;;12.10;5.53;;;8.60;99.90;;;;;;5135214;28;20961;-65
2023/12/27 07:40:31;;;;;;;13.27;6.03;;;8.50;99.90;;;;;;5135404;28;20462;-65
2023/12/27 07:42:58;;;;;;;7.33;5.20;;;8.60;99.90;;;;;;5135555;28;20449;-65
2023/12/27 07:45:24;;;;;;;9.67;5.60;;;8.60;99.90;;;;;;5137957;27;20442;-65
2023/12/27 07:47:51;;;;;;;11.70;7.10;;;8.50;99.90;;;;;;5139515;27;20943;-65
2023/12/27 07:50:18;;;;;;;14.50;6.33;;;8.60;99.90;;;;;;5122382;27;20466;-65
2023/12/27 07:52:47;;;;;;;11.30;5.73;;;8.60;99.90;;;;;;5143914;27;20994;-64
2023/12/27 07:55:14;;;;;;;8.17;5.70;;;8.60;99.90;;;;;;5142517;27;20452;-64
2023/12/27 07:57:41;;;;;;;8.87;5.20;;;8.60;99.90;;;;;;5141966;27;20443;-64
2023/12/27 08:00:10;;;;;;;10.40;5.40;;;8.60;99.90;;;;;;5140488;27;20458;-64
2023/12/27 08:02:37;;;;;;;8.37;5.50;;;8.60;99.90;;;;;;5123096;27;20954;-64
2023/12/27 08:05:04;;;;;;;7.50;6.07;;;8.60;99.90;;;;;;5141258;27;20441;-64
2023/12/27 08:07:32;;;;;;;11.20;7.07;;;8.70;99.90;;;;;;5140902;27;20442;-65
2023/12/27 08:10:01;;;;;;;10.67;6.70;;;8.70;99.90;;;;;;5141384;27;20458;-65
2023/12/27 08:12:28;;;;;;;14.50;6.70;;;8.70;99.90;;;;;;5140748;27;20934;-65
2023/12/27 08:14:55;;;;;;;8.97;6.60;;;8.70;99.90;;;;;;5140390;27;20441;-65
2023/12/27 08:17:22;;;;;;;16.10;7.03;;;8.70;99.90;;;;;;5121588;27;20445;-65
2023/12/27 08:19:49;;;;;;;15.33;7.53;;;8.80;99.90;;;;;;5139626;27;20993;-65
2023/12/27 08:22:16;;;;;;;10.07;7.33;;;8.80;99.90;;;;;;5139586;27;20812;-65
2023/12/27 08:24:44;;;;;;;14.20;9.20;;;8.80;99.90;;;;;;5139962;27;20445;-66
2023/12/27 08:27:13;;;;;;;12.63;8.40;;;8.90;99.90;;;;;;5140025;27;20441;-65
2023/12/27 08:29:41;;;;;;;18.33;8.30;;;8.90;99.90;;;;;;5140005;27;20465;-65
2023/12/27 08:32:09;;;;;;;8.77;6.90;;;8.90;99.90;;;;;;5142390;27;20437;-66
2023/12/27 08:34:39;;;;;;;9.37;5.37;;;8.90;99.90;;;;;;5142880;27;20493;-66
2023/12/27 08:37:06;;;;;;;9.10;6.00;;;8.90;99.90;;;;;;5144455;27;20429;-65
2023/12/27 08:39:32;;;;;;;10.97;6.33;;;9.00;99.90;;;;;;5139255;27;20457;-65
2023/12/27 08:42:01;;;;;;;11.07;7.90;;;9.00;99.90;;;;;;5139057;27;20927;-66
2023/12/27 08:44:29;;;;;;;13.93;10.17;;;9.00;99.90;;;;;;5139102;27;20560;-66
2023/12/27 08:46:55;;;;;;;14.87;9.07;;;9.10;99.90;;;;;;5138823;27;20811;-66
2023/12/27 08:49:24;;;;;;;17.87;9.63;;;9.10;99.90;;;;;;5137609;27;20466;-65
2023/12/27 08:51:51;;;;;;;14.43;8.23;;;9.20;99.90;;;;;;5139378;27;20499;-66
2023/12/27 08:54:18;;;;;;;16.10;8.30;;;9.20;99.90;;;;;;5138614;27;20481;-67
2023/12/27 08:56:45;;;;;;;16.10;8.33;;;9.30;99.90;;;;;;5138585;27;20434;-66
2023/12/27 08:59:12;;;;;;;14.17;7.70;;;9.30;99.90;;;;;;5139227;27;20465;-66
2023/12/27 09:01:40;;;;;;;13.77;7.50;;;9.40;99.90;;;;;;5139591;27;20453;-67
2023/12/27 09:04:08;;;;;;;11.70;7.40;;;9.40;99.90;;;;;;5138689;27;20430;-67
2023/12/27 09:06:35;;;;;;;13.10;7.83;;;9.50;99.90;;;;;;5121380;27;20511;-67
2023/12/27 09:09:04;;;;;;;15.73;7.73;;;9.50;99.90;;;;;;5139299;27;20450;-67
2023/12/27 09:11:31;;;;;;;14.00;7.57;;;9.50;99.90;;;;;;5139493;27;20517;-67
2023/12/27 09:13:57;;;;;;;10.50;6.20;;;9.60;99.90;;;;;;5138478;27;20484;-67
2023/12/27 09:16:24;;;;;;;11.90;5.37;;;9.60;99.90;;;;;;5138267;27;20445;-67
2023/12/27 09:18:52;;;;;;;10.50;6.63;;;9.60;99.90;;;;;;5138487;27;20442;-67
2023/12/27 09:21:19;;;;;;;7.07;6.00;;;9.70;99.90;;;;;;5138442;27;20453;-67
2023/12/27 09:23:46;;;;;;;13.43;6.57;;;9.70;99.90;;;;;;5138558;27;20438;-67
2023/12/27 09:26:17;;;;;;;12.20;6.03;;;9.70;99.90;;;;;;5138408;27;20445;-67
2023/12/27 09:28:44;;;;;;;9.13;6.20;;;9.70;99.90;;;;;;5138271;27;20426;-67
2023/12/27 09:31:13;;;;;;;9.53;6.00;;;9.70;99.90;;;;;;5137379;27;20492;-67
2023/12/27 09:33:42;;;;;;;9.63;6.03;;;9.80;99.90;;;;;;5137966;27;21041;-67
2023/12/27 09:36:10;;;;;;;10.80;6.10;;;9.80;99.90;;;;;;5139050;27;20475;-67
2023/12/27 09:38:38;;;;;;;10.30;5.83;;;9.80;99.90;;;;;;5138315;27;20446;-67
2023/12/27 09:41:05;;;;;;;8.80;5.67;;;9.80;99.90;;;;;;5138204;27;20558;-67
2023/12/27 09:43:33;;;;;;;9.13;5.60;;;9.80;99.90;;;;;;5138533;27;20430;-67
2023/12/27 09:46:02;;;;;;;7.23;5.67;;;9.80;99.90;;;;;;5138560;27;20445;-66
2023/12/27 09:48:29;;;;;;;12.53;6.20;;;9.80;99.90;;;;;;5137563;27;20442;-66
2023/12/27 09:51:00;;;;;;;6.07;4.83;;;9.80;99.90;;;;;;5137256;27;20462;-66
2023/12/27 09:53:28;;;;;;;11.80;5.80;;;9.80;99.90;;;;;;5137599;27;20474;-66
2023/12/27 09:55:56;;;;;;;8.40;5.47;;;9.90;99.90;;;;;;5118704;27;20492;-66
2023/12/27 09:58:25;;;;;;;11.30;6.70;;;9.90;99.90;;;;;;5119517;27;20453;-67
2023/12/27 10:00:54;;;;;;;10.03;6.87;;;9.90;99.90;;;;;;5137286;27;20462;-66
2023/12/27 10:03:31;;;;;;;5.90;4.10;;;10.00;99.90;;;;;;5137796;27;20545;-66
2023/12/27 10:06:06;;;;;;;6.90;3.30;;;10.10;99.90;;;;;;5137330;27;20426;-66
2023/12/27 10:08:38;;;;;;;3.10;2.30;;;10.10;99.90;;;;;;5136521;27;20851;-67
2023/12/27 10:11:08;;;;;;;2.63;1.87;;;10.10;99.90;;;;;;5138339;27;20469;-67
2023/12/27 10:13:37;;;;;;;2.17;1.97;;;10.20;99.90;;;;;;5153517;27;20462;-67
2023/12/27 10:16:04;;;;;;;3.43;2.17;;;10.20;99.90;;;;;;5123801;27;20799;-67
2023/12/27 10:18:31;;;;;;;3.47;2.53;;;10.30;99.90;;;;;;5139443;27;20472;-66
2023/12/27 10:20:59;;;;;;;2.40;2.00;;;10.30;99.90;;;;;;5137970;27;20461;-67
2023/12/27 10:23:25;;;;;;;1.70;1.60;;;10.30;99.90;;;;;;5136781;27;20438;-67
2023/12/27 10:25:54;;;;;;;1.97;1.43;;;10.30;99.90;;;;;;5137518;27;20443;-67
2023/12/27 10:28:23;;;;;;;1.90;1.10;;;10.40;99.90;;;;;;5137316;27;20442;-67
2023/12/27 10:30:51;;;;;;;2.07;1.77;;;10.40;99.90;;;;;;5119049;27;20470;-66
2023/12/27 10:33:20;;;;;;;1.70;1.40;;;10.40;99.90;;;;;;5137670;27;20476;-67
2023/12/27 10:35:48;;;;;;;1.40;1.30;;;10.50;99.90;;;;;;5136859;27;20442;-66
2023/12/27 10:38:16;;;;;;;1.53;1.03;;;10.50;99.90;;;;;;5138384;27;20485;-67
2023/12/27 10:40:44;;;;;;;3.17;1.20;;;10.60;99.90;;;;;;5119357;28;20842;-67
2023/12/27 10:43:12;;;;;;;1.30;1.00;;;10.70;99.90;;;;;;5119001;27;20974;-67
2023/12/27 10:45:39;;;;;;;1.30;1.20;;;10.70;99.90;;;;;;5137408;27;20473;-67
2023/12/27 10:48:06;;;;;;;1.70;1.03;;;10.80;99.90;;;;;;5118546;28;20453;-67
2023/12/27 10:50:35;;;;;;;1.47;1.33;;;10.80;99.90;;;;;;5137016;28;20541;-67
2023/12/27 10:53:03;;;;;;;1.80;0.90;;;10.90;99.90;;;;;;5136964;28;20442;-67
2023/12/27 10:55:32;;;;;;;1.07;0.97;;;10.90;99.90;;;;;;5136292;28;20453;-67
2023/12/27 10:58:00;;;;;;;3.40;1.23;;;11.00;99.90;;;;;;5136975;28;20438;-67
2023/12/27 11:00:30;;;;;;;6.23;0.90;;;11.10;99.90;;;;;;5137319;28;20552;-67
2023/12/27 11:02:58;;;;;;;0.80;0.80;;;11.10;99.90;;;;;;5137173;28;20453;-67
2023/12/27 11:05:27;;;;;;;2.17;0.80;;;11.10;99.90;;;;;;5137483;28;20434;-67
2023/12/27 11:07:54;;;;;;;3.50;0.70;;;11.20;99.90;;;;;;5138413;28;20452;-67
2023/12/27 11:10:23;;;;;;;1.83;0.93;;;11.20;99.90;;;;;;5118852;28;20466;-67
2023/12/27 11:12:50;;;;;;;2.57;1.20;;;11.10;99.90;;;;;;5137283;28;20448;-67
2023/12/27 11:15:18;;;;;;;1.90;1.00;;;11.10;99.90;;;;;;5137051;28;20485;-67
2023/12/27 11:17:49;;;;;;;3.23;0.80;;;11.20;99.90;;;;;;5137895;28;20450;-67
2023/12/27 11:20:19;;;;;;;5.50;1.10;;;11.10;99.90;;;;;;5138772;27;20469;-67
2023/12/27 11:22:46;;;;;;;6.63;0.70;;;11.10;99.90;;;;;;5141962;27;20903;-67
2023/12/27 11:25:13;;;;;;;7.03;0.77;;;11.10;99.90;;;;;;5141221;27;20820;-67
2023/12/27 11:27:41;;;;;;;2.93;0.90;;;11.10;99.90;;;;;;5141545;27;20433;-67
2023/12/27 11:30:11;;;;;;;0.60;0.60;;;11.10;99.90;;;;;;5142386;27;20469;-66
2023/12/27 11:32:41;;;;;;;2.20;0.60;;;11.10;99.90;;;;;;5143108;27;20457;-67
2023/12/27 11:35:11;;;;;;;1.90;0.60;;;11.00;99.90;;;;;;5145619;27;20477;-67
2023/12/27 11:37:41;;;;;;;0.87;0.70;;;11.00;99.90;;;;;;5147352;27;20426;-67
2023/12/27 11:40:10;;;;;;;3.80;0.77;;;11.10;99.90;;;;;;5146949;27;20454;-67
2023/12/27 11:42:38;;;;;;;2.43;0.60;;;11.10;99.90;;;;;;5145893;27;20448;-68
2023/12/27 11:45:06;;;;;;;1.30;1.00;;;11.20;99.90;;;;;;5145601;27;20473;-67
2023/12/27 11:47:33;;;;;;;1.13;0.80;;;11.20;99.90;;;;;;5145749;27;20438;-67
2023/12/27 11:50:20;;;;;;;3.10;0.80;;;11.20;99.90;;;;;;5145421;27;20462;-67
2023/12/27 11:52:51;;;;;;;1.70;0.80;;;11.20;99.90;;;;;;5144735;27;20422;-67
2023/12/27 11:55:20;;;;;;;2.50;1.00;;;11.30;99.90;;;;;;5142810;27;20490;-67
2023/12/27 11:57:56;;;;;;;0.83;0.77;;;11.20;99.90;;;;;;5143291;27;20445;-67
2023/12/27 12:00:25;;;;;;;4.30;1.00;;;11.30;99.90;;;;;;5142387;27;20461;-67
2023/12/27 12:02:58;;;;;;;1.43;0.93;;;11.20;99.90;;;;;;5123486;27;20494;-67
2023/12/27 12:05:40;;;;;;;1.60;0.83;;;11.20;99.90;;;;;;5141353;27;20855;-67
2023/12/27 12:08:15;;;;;;;1.40;0.80;;;11.20;99.90;;;;;;5140962;27;20449;-67
2023/12/27 12:10:42;;;;;;;1.87;0.70;;;11.30;99.90;;;;;;5141275;27;20457;-67
2023/12/27 12:13:11;;;;;;;2.63;0.97;;;11.20;99.90;;;;;;5140589;27;20441;-67
2023/12/27 12:15:37;;;;;;;1.97;1.30;;;11.20;99.90;;;;;;5140718;27;20489;-67
2023/12/27 12:18:05;;;;;;;2.57;1.20;;;11.20;99.90;;;;;;5140379;27;20441;-67
2023/12/27 12:20:34;;;;;;;1.07;0.90;;;11.30;99.90;;;;;;5139835;27;20461;-66
2023/12/27 12:23:03;;;;;;;1.10;1.00;;;11.30;99.90;;;;;;5140010;27;20438;-66
2023/12/27 12:25:29;;;;;;;2.90;1.33;;;11.40;99.90;;;;;;5104895;27;20442;-67
2023/12/27 12:27:56;;;;;;;1.60;1.13;;;11.40;99.90;;;;;;5139494;27;20813;-66
2023/12/27 12:30:23;;;;;;;4.13;1.47;;;11.50;99.90;;;;;;5147868;27;20461;-66
2023/12/27 12:32:50;;;;;;;1.53;1.10;;;11.60;99.90;;;;;;5148581;27;20438;-66
2023/12/27 12:35:17;;;;;;;1.97;1.00;;;11.70;99.90;;;;;;5141441;27;20470;-67
2023/12/27 12:37:45;;;;;;;5.17;1.40;;;11.70;99.90;;;;;;5122278;27;20852;-67
2023/12/27 12:40:17;;;;;;;3.07;1.27;;;11.80;99.90;;;;;;5121349;27;20458;-66
2023/12/27 12:42:44;;;;;;;3.50;1.43;;;11.90;99.90;;;;;;5140256;27;20517;-67
2023/12/27 12:45:11;;;;;;;5.30;1.67;;;12.00;99.90;;;;;;5139380;27;20438;-67
2023/12/27 12:47:38;;;;;;;4.80;1.50;;;12.10;99.90;;;;;;5121528;27;20946;-66
2023/12/27 12:50:07;;;;;;;8.10;1.63;;;12.10;99.90;;;;;;5139114;27;20469;-66
2023/12/27 12:52:36;;;;;;;3.63;1.20;;;12.10;99.90;;;;;;5139746;27;20438;-66